Vohburg — V2OW7 — position and weather

sailwx.info

Track history (hours):
 
Tides and Currents Weather Stations Pressure Air Temp Water Temp Dewpoint Dewpoint Depression Visibility Wind Speed Wind Dir Waves Ship Positions

Vohburg

Last reported at 2014-Nov-01 10:33 UTC. Time now 2014-Nov-01 11:59 UTC.
Position N 59°34' E 023°30'.

Length 140 m; draft 7 m.

Type: Ship (hazmat cat A). MMSI: 305773000.

Date/timePositionNaut miles runAvg speedWind from/ knotsBaromVisibWave heightAir tempDewpointWater temp
2014-Nov-01 10:33N 59°34' E 023°30'35614.5
2014-Oct-31 10:03N 55°35' E 015°17'815.4
2014-Oct-31 09:32N 55°32' E 015°04'1515.2
2014-Oct-31 08:32N 55°24' E 014°41'1515.4
2014-Oct-31 07:32N 55°13' E 014°23'8814.6
2014-Oct-31 01:32N 54°27' E 012°13'1414.5
2014-Oct-31 00:33N 54°20' E 011°51'27 1.3
2014-Oct-30 03:19N 54°08' E 011°10'191 7.9
2014-Oct-29 03:13N 57°18' E 010°42'1014.5
2014-Oct-29 02:33N 57°27' E 010°43'1515.2
2014-Oct-29 01:33N 57°42' E 010°45'1413.6
2014-Oct-29 00:33N 57°46' E 010°21'6117.6
2014-Oct-28 21:05N 57°14' E 008°44'9817.2
2014-Oct-28 15:24N 55°54' E 006°59'1517.1
2014-Oct-28 14:33N 55°41' E 006°48'1817.0
2014-Oct-28 13:30N 55°25' E 006°34'1617.1
2014-Oct-28 12:33N 55°11' E 006°21'2117.1
2014-Oct-28 11:18N 54°52' E 006°03'1917.4
2014-Oct-28 10:14N 54°36' E 005°48'1517.3
2014-Oct-28 09:22N 54°23' E 005°35'1417.3
2014-Oct-28 08:32N 54°10' E 005°23'1717.3
2014-Oct-28 07:33N 53°56' E 005°08'1817.7
2014-Oct-28 06:32N 53°40' E 004°53'1717.8
2014-Oct-28 05:33N 53°24' E 004°41'1918.1
2014-Oct-28 04:32N 53°07' E 004°29'1717.3
2014-Oct-28 03:33N 52°52' E 004°16'1716.8
2014-Oct-28 02:33N 52°38' E 004°01'1616.0
2014-Oct-28 01:33N 52°23' E 003°52'1616.2
2014-Oct-28 00:33N 52°07' E 003°55'1211.6
2014-Oct-27 23:34N 51°58' E 004°08'1110.8
2014-Oct-27 22:34N 51°54' E 004°24'1 1.3
2014-Oct-27 21:33N 51°53' E 004°25'0 0.0
2014-Oct-27 20:33N 51°53' E 004°25'0 0.0
2014-Oct-27 19:32N 51°53' E 004°25'0 0.0
2014-Oct-27 18:32N 51°53' E 004°25'0 0.0
2014-Oct-27 17:30N 51°53' E 004°25'0 0.0
2014-Oct-27 16:33N 51°53' E 004°25'0 0.0
2014-Oct-27 15:31N 51°53' E 004°25'0 0.0
2014-Oct-27 14:31N 51°53' E 004°25'0 0.0
2014-Oct-27 13:34N 51°53' E 004°25'0 0.0
2014-Oct-27 12:34N 51°53' E 004°25'0 0.0
2014-Oct-27 11:30N 51°53' E 004°25'3 2.9
2014-Oct-27 10:33N 51°54' E 004°21'1212.3
2014-Oct-27 09:34N 51°59' E 004°03'1413.5
2014-Oct-27 08:33N 52°08' E 003°46'1717.1
2014-Oct-27 07:32N 52°25' E 003°50'1616.3
2014-Oct-27 06:33N 52°41' E 003°55'5215.3
2014-Oct-27 03:08N 53°27' E 004°36'916.2
2014-Oct-27 02:33N 53°32' E 004°50'1717.0
2014-Oct-27 01:33N 53°37' E 005°16'1716.8
2014-Oct-27 00:33N 53°43' E 005°43'6515.4
2014-Oct-26 20:21N 53°60' E 007°30'1316.0
2014-Oct-26 19:33N 54°02' E 007°51'1515.4
2014-Oct-26 18:33N 54°00' E 008°17'1818.1
2014-Oct-26 17:34N 53°52' E 008°44'1514.5
2014-Oct-26 16:33N 53°54' E 009°09'2 1.8
2014-Oct-26 15:33N 53°55' E 009°11'9 8.1
2014-Oct-26 14:30N 54°02' E 009°18'10 7.3
2014-Oct-26 13:09N 54°11' E 009°27'4 3.9
2014-Oct-26 12:12N 54°12' E 009°33'4 5.5
2014-Oct-26 11:25N 54°16' E 009°37'4 4.5
2014-Oct-26 10:33N 54°18' E 009°42'7 7.2
2014-Oct-26 09:33N 54°21' E 009°53'5 5.4
2014-Oct-26 08:33N 54°22' E 010°03'3 3.4
2014-Oct-26 07:33N 54°22' E 010°09'2 1.6
2014-Oct-26 06:34N 54°23' E 010°11'1111.3
2014-Oct-26 05:33N 54°32' E 010°23'4811.8
2014-Oct-26 01:31N 54°26' E 011°45'1313.4
2014-Oct-26 00:33N 54°26' E 012°07'6613.1
2014-Oct-25 19:33N 55°01' E 013°44'1313.5
2014-Oct-25 18:33N 55°07' E 014°05'1413.9
2014-Oct-25 17:33N 55°17' E 014°22'1414.1
2014-Oct-25 16:33N 55°27' E 014°39'1414.3
2014-Oct-25 15:33N 55°34' E 015°01'4314.1
2014-Oct-25 12:28N 55°56' E 016°07'7712.8
2014-Oct-25 06:30N 57°01' E 017°21'1314.0
2014-Oct-25 05:33N 57°13' E 017°30'1414.2
2014-Oct-25 04:33N 57°27' E 017°40'21513.1
2014-Oct-24 12:09N 59°36' E 023°08'813.6
2014-Oct-24 11:33N 59°38' E 023°24'1613.8
2014-Oct-24 10:23N 59°42' E 023°55'1214.2
2014-Oct-24 09:33N 59°45' E 024°17'6314.5
2014-Oct-24 05:15N 59°59' E 026°19'1015.1
2014-Oct-24 04:33N 60°01' E 026°39'8 0.3
2014-Oct-22 21:32N 59°58' E 026°55'1815.8
2014-Oct-22 20:25N 59°58' E 026°19'3515.2
2014-Oct-22 18:07N 60°06' E 025°11'712.4
2014-Oct-22 17:33N 60°13' E 025°12'0 0.3
2014-Oct-22 16:13N 60°13' E 025°11'0 0.0
2014-Oct-22 15:30N 60°13' E 025°11'0 0.1
2014-Oct-22 12:33N 60°13' E 025°12'  
Track history (hours):
 
Tides and Currents Weather Stations Pressure Air Temp Water Temp Dewpoint Dewpoint Depression Visibility Wind Speed Wind Dir Waves Ship Positions

Vohburg

Last reported at 2014-Nov-01 10:33 UTC. Time now 2014-Nov-01 11:59 UTC.
Position N 59°34' E 023°30'.

Length 140 m; draft 7 m.

Type: Ship (hazmat cat A). MMSI: 305773000.

Date/timePositionNaut miles runAvg speedWind from/ knotsBaromVisibWave heightAir tempDewpointWater temp
2014-Nov-01 10:33N 59°34' E 023°30'35614.5
2014-Oct-31 10:03N 55°35' E 015°17'815.4
2014-Oct-31 09:32N 55°32' E 015°04'1515.2
2014-Oct-31 08:32N 55°24' E 014°41'1515.4
2014-Oct-31 07:32N 55°13' E 014°23'8814.6
2014-Oct-31 01:32N 54°27' E 012°13'1414.5
2014-Oct-31 00:33N 54°20' E 011°51'27 1.3
2014-Oct-30 03:19N 54°08' E 011°10'191 7.9
2014-Oct-29 03:13N 57°18' E 010°42'1014.5
2014-Oct-29 02:33N 57°27' E 010°43'1515.2
2014-Oct-29 01:33N 57°42' E 010°45'1413.6
2014-Oct-29 00:33N 57°46' E 010°21'6117.6
2014-Oct-28 21:05N 57°14' E 008°44'9817.2
2014-Oct-28 15:24N 55°54' E 006°59'1517.1
2014-Oct-28 14:33N 55°41' E 006°48'1817.0
2014-Oct-28 13:30N 55°25' E 006°34'1617.1
2014-Oct-28 12:33N 55°11' E 006°21'2117.1
2014-Oct-28 11:18N 54°52' E 006°03'1917.4
2014-Oct-28 10:14N 54°36' E 005°48'1517.3
2014-Oct-28 09:22N 54°23' E 005°35'1417.3
2014-Oct-28 08:32N 54°10' E 005°23'1717.3
2014-Oct-28 07:33N 53°56' E 005°08'1817.7
2014-Oct-28 06:32N 53°40' E 004°53'1717.8
2014-Oct-28 05:33N 53°24' E 004°41'1918.1
2014-Oct-28 04:32N 53°07' E 004°29'1717.3
2014-Oct-28 03:33N 52°52' E 004°16'1716.8
2014-Oct-28 02:33N 52°38' E 004°01'1616.0
2014-Oct-28 01:33N 52°23' E 003°52'1616.2
2014-Oct-28 00:33N 52°07' E 003°55'1211.6
2014-Oct-27 23:34N 51°58' E 004°08'1110.8
2014-Oct-27 22:34N 51°54' E 004°24'1 1.3
2014-Oct-27 21:33N 51°53' E 004°25'0 0.0
2014-Oct-27 20:33N 51°53' E 004°25'0 0.0
2014-Oct-27 19:32N 51°53' E 004°25'0 0.0
2014-Oct-27 18:32N 51°53' E 004°25'0 0.0
2014-Oct-27 17:30N 51°53' E 004°25'0 0.0
2014-Oct-27 16:33N 51°53' E 004°25'0 0.0
2014-Oct-27 15:31N 51°53' E 004°25'0 0.0
2014-Oct-27 14:31N 51°53' E 004°25'0 0.0
2014-Oct-27 13:34N 51°53' E 004°25'0 0.0
2014-Oct-27 12:34N 51°53' E 004°25'0 0.0
2014-Oct-27 11:30N 51°53' E 004°25'3 2.9
2014-Oct-27 10:33N 51°54' E 004°21'1212.3
2014-Oct-27 09:34N 51°59' E 004°03'1413.5
2014-Oct-27 08:33N 52°08' E 003°46'1717.1
2014-Oct-27 07:32N 52°25' E 003°50'1616.3
2014-Oct-27 06:33N 52°41' E 003°55'5215.3
2014-Oct-27 03:08N 53°27' E 004°36'916.2
2014-Oct-27 02:33N 53°32' E 004°50'1717.0
2014-Oct-27 01:33N 53°37' E 005°16'1716.8
2014-Oct-27 00:33N 53°43' E 005°43'6515.4
2014-Oct-26 20:21N 53°60' E 007°30'1316.0
2014-Oct-26 19:33N 54°02' E 007°51'1515.4
2014-Oct-26 18:33N 54°00' E 008°17'1818.1
2014-Oct-26 17:34N 53°52' E 008°44'1514.5
2014-Oct-26 16:33N 53°54' E 009°09'2 1.8
2014-Oct-26 15:33N 53°55' E 009°11'9 8.1
2014-Oct-26 14:30N 54°02' E 009°18'10 7.3
2014-Oct-26 13:09N 54°11' E 009°27'4 3.9
2014-Oct-26 12:12N 54°12' E 009°33'4 5.5
2014-Oct-26 11:25N 54°16' E 009°37'4 4.5
2014-Oct-26 10:33N 54°18' E 009°42'7 7.2
2014-Oct-26 09:33N 54°21' E 009°53'5 5.4
2014-Oct-26 08:33N 54°22' E 010°03'3 3.4
2014-Oct-26 07:33N 54°22' E 010°09'2 1.6
2014-Oct-26 06:34N 54°23' E 010°11'1111.3
2014-Oct-26 05:33N 54°32' E 010°23'4811.8
2014-Oct-26 01:31N 54°26' E 011°45'1313.4
2014-Oct-26 00:33N 54°26' E 012°07'6613.1
2014-Oct-25 19:33N 55°01' E 013°44'1313.5
2014-Oct-25 18:33N 55°07' E 014°05'1413.9
2014-Oct-25 17:33N 55°17' E 014°22'1414.1
2014-Oct-25 16:33N 55°27' E 014°39'1414.3
2014-Oct-25 15:33N 55°34' E 015°01'4314.1
2014-Oct-25 12:28N 55°56' E 016°07'7712.8
2014-Oct-25 06:30N 57°01' E 017°21'1314.0
2014-Oct-25 05:33N 57°13' E 017°30'1414.2
2014-Oct-25 04:33N 57°27' E 017°40'21513.1
2014-Oct-24 12:09N 59°36' E 023°08'813.6
2014-Oct-24 11:33N 59°38' E 023°24'1613.8
2014-Oct-24 10:23N 59°42' E 023°55'1214.2
2014-Oct-24 09:33N 59°45' E 024°17'6314.5
2014-Oct-24 05:15N 59°59' E 026°19'1015.1
2014-Oct-24 04:33N 60°01' E 026°39'8 0.3
2014-Oct-22 21:32N 59°58' E 026°55'1815.8
2014-Oct-22 20:25N 59°58' E 026°19'3515.2
2014-Oct-22 18:07N 60°06' E 025°11'712.4
2014-Oct-22 17:33N 60°13' E 025°12'0 0.3
2014-Oct-22 16:13N 60°13' E 025°11'0 0.0
2014-Oct-22 15:30N 60°13' E 025°11'0 0.1
2014-Oct-22 12:33N 60°13' E 025°12'  

Dump ship's entire track history